Time;durP1;ratioP1;P1;durP2;ratioP2;P2;SDS_P1;SDS_P2;PMS_P1;PMS_P2;Temp;Humidity;BMP_temperature;BMP_pressure;BME280_temperature;BME280_humidity;BME280_pressure;Samples;Min_cycle;Max_cycle;Signal;HPM_P1;HPM_P2
2022/11/04 00:01:25;;;;;;;12.95;7.43;;;;;;;12.07;82.88;98491.53;5033972;28;20178;-56
2022/11/04 00:03:52;;;;;;;11.40;8.13;;;;;;;11.91;84.19;98493.56;5034031;28;20182;-56
2022/11/04 00:06:18;;;;;;;11.27;7.63;;;;;;;11.78;84.99;98494.59;5033997;28;20178;-56
2022/11/04 00:08:50;;;;;;;12.35;8.43;;;;;;;11.58;86.41;98495.13;5016395;28;20174;-56
2022/11/04 00:14:00;;;;;;;15.80;7.50;;;;;;;11.43;88.17;98485.88;5033969;28;20190;-55
2022/11/04 00:19:10;;;;;;;13.32;7.82;;;;;;;11.43;88.58;98485.88;5033460;28;20711;-56
2022/11/04 00:29:47;;;;;;;10.82;7.28;;;;;;;11.51;87.69;98475.78;5033745;28;20248;-56
2022/11/04 00:34:56;;;;;;;10.98;7.28;;;;;;;11.40;88.77;98470.53;5033411;28;20170;-56
2022/11/04 00:37:22;;;;;;;14.27;7.65;;;;;;;11.40;88.73;98479.16;5033226;28;20198;-56
2022/11/04 00:39:47;;;;;;;18.13;7.68;;;;;;;11.26;90.05;98476.69;5033321;28;20229;-56
2022/11/04 00:42:12;;;;;;;10.98;7.88;;;;;;;11.29;89.75;98480.81;5033181;28;20189;-56
2022/11/04 00:44:38;;;;;;;10.57;7.60;;;;;;;11.37;89.29;98478.53;5033108;28;20221;-55
2022/11/04 00:47:03;;;;;;;11.45;7.10;;;;;;;11.32;88.88;98486.59;5015693;28;20255;-55
2022/11/04 00:49:29;;;;;;;14.98;8.50;;;;;;;11.29;89.39;98478.22;5033040;28;20174;-56
2022/11/04 00:51:54;;;;;;;12.85;7.45;;;;;;;11.34;88.35;98464.03;5033092;28;20170;-56
2022/11/04 00:54:20;;;;;;;12.40;7.97;;;;;;;11.51;87.34;98480.97;5033154;28;20628;-56
2022/11/04 00:56:47;;;;;;;12.45;8.27;;;;;;;11.50;88.11;98474.13;5032873;28;20225;-55
2022/11/04 00:59:13;;;;;;;18.00;8.50;;;;;;;11.26;90.04;98476.69;5032782;28;20575;-55
2022/11/04 01:01:38;;;;;;;13.23;8.45;;;;;;;11.45;88.66;98477.03;5015074;28;20182;-56
2022/11/04 01:04:03;;;;;;;11.30;8.05;;;;;;;11.47;88.64;98475.19;5032763;28;20177;-55
2022/11/04 01:06:29;;;;;;;11.75;7.60;;;;;;;11.50;88.21;98463.78;5032712;28;20635;-56
2022/11/04 01:09:00;;;;;;;15.02;8.50;;;;;;;11.68;87.03;98484.03;5032740;28;20182;-56
2022/11/04 01:11:28;;;;;;;16.40;8.50;;;;;;;11.78;86.53;98484.22;5032944;28;20240;-56
2022/11/04 01:13:54;;;;;;;14.02;8.00;;;;;;;11.40;88.51;98478.31;5033185;28;20261;-55
2022/11/04 01:16:20;;;;;;;13.93;7.85;;;;;;;11.20;90.57;98471.13;5032460;28;20558;-56
2022/11/04 01:18:47;;;;;;;12.93;8.05;;;;;;;11.01;91.12;98460.38;5014796;28;20186;-56
2022/11/04 01:21:13;;;;;;;14.02;7.93;;;;;;;11.20;90.13;98476.31;5032534;28;20221;-56
2022/11/04 01:23:40;;;;;;;20.67;8.77;;;;;;;11.48;88.06;98473.41;5032589;28;20631;-55
2022/11/04 01:26:07;;;;;;;11.07;7.43;;;;;;;11.34;89.14;98468.38;5032387;28;20240;-55
2022/11/04 01:28:33;;;;;;;14.27;8.45;;;;;;;11.46;88.25;98470.09;5014386;28;20185;-55
2022/11/04 01:30:59;;;;;;;17.33;8.57;;;;;;;11.34;89.13;98468.38;5032349;28;20178;-55
2022/11/04 01:33:24;;;;;;;13.45;8.25;;;;;;;11.16;90.84;98477.44;5032289;28;20564;-56
2022/11/04 01:35:50;;;;;;;14.93;7.82;;;;;;;11.00;91.00;98469.06;5032737;28;20175;-56
2022/11/04 01:38:16;;;;;;;13.27;8.10;;;;;;;10.96;91.55;98462.44;5032249;28;20209;-56
2022/11/04 01:40:41;;;;;;;14.15;7.95;;;;;;;10.72;92.58;98458.94;5032406;28;20182;-56
2022/11/04 01:43:18;;;;;;;11.32;7.70;;;;;;;10.76;92.97;98463.00;5032048;28;20687;-55
2022/11/04 01:45:55;;;;;;;13.10;8.85;;;;;;;10.65;93.86;98457.72;5032302;28;20178;-55
2022/11/04 01:48:25;;;;;;;15.90;8.60;;;;;;;10.60;94.61;98455.47;5032167;28;20158;-55
2022/11/04 01:50:53;;;;;;;13.07;7.72;;;;;;;10.81;93.95;98450.56;5031917;28;20564;-57
2022/11/04 01:53:32;;;;;;;11.40;8.02;;;;;;;10.84;93.29;98447.75;5030630;28;20182;-56
2022/11/04 01:56:10;;;;;;;12.52;7.90;;;;;;;10.92;92.46;98456.66;5031196;28;20185;-56
2022/11/04 01:58:45;;;;;;;12.90;8.45;;;;;;;10.88;92.69;98454.38;5031970;28;20193;-55
2022/11/04 02:01:11;;;;;;;11.90;8.20;;;;;;;10.69;93.92;98459.19;5031152;28;20631;-55
2022/11/04 02:04:24;;;;;;;12.75;8.70;;;;;;;10.60;95.26;98449.44;5031893;28;20181;-55
2022/11/04 02:06:47;;;;;;;14.13;9.57;;;;;;;10.64;96.04;98449.16;5031730;28;20210;-55
2022/11/04 02:09:14;;;;;;;17.20;8.90;;;;;;;10.62;96.15;98443.22;5031841;28;20182;-55
2022/11/04 02:14:24;;;;;;;14.23;9.63;;;;;;;10.53;98.42;98443.03;5031958;28;20201;-55
2022/11/04 02:16:51;;;;;;;14.27;8.95;;;;;;;10.46;98.48;98426.28;5031693;28;20217;-55
2022/11/04 02:19:41;;;;;;;23.52;10.00;;;;;;;10.41;99.68;98439.53;5031826;28;20202;-55
2022/11/04 02:22:50;;;;;;;17.00;9.15;;;;;;;10.53;99.38;98437.84;5031804;28;20616;-55
2022/11/04 02:25:48;;;;;;;16.25;9.75;;;;;;;10.46;98.95;98431.44;5031529;28;20273;-56
2022/11/04 02:28:36;;;;;;;13.00;9.07;;;;;;;10.36;98.88;98430.41;5031071;28;20194;-55
2022/11/04 02:31:19;;;;;;;13.30;9.13;;;;;;;10.39;98.23;98436.19;4994789;28;20194;-56
2022/11/04 02:34:06;;;;;;;15.45;9.60;;;;;;;10.19;100.00;98428.13;5031938;28;20580;-55
2022/11/04 02:36:42;;;;;;;14.70;9.07;;;;;;;10.19;100.00;98428.97;5031692;28;20186;-55
2022/11/04 02:39:47;;;;;;;13.27;9.77;;;;;;;10.29;100.00;98424.00;5031618;28;20224;-55
2022/11/04 02:42:20;;;;;;;16.08;9.73;;;;;;;10.30;100.00;98423.06;4994046;28;20584;-56
2022/11/04 02:44:55;;;;;;;17.52;8.55;;;;;;;10.40;100.00;98418.94;5017781;28;20214;-55
2022/11/04 02:47:27;;;;;;;13.95;9.32;;;;;;;10.13;100.00;98413.00;5035656;28;20614;-56
2022/11/04 02:50:12;;;;;;;15.70;9.82;;;;;;;10.15;100.00;98417.16;5035380;28;20207;-56
2022/11/04 02:52:48;;;;;;;14.70;10.30;;;;;;;10.24;100.00;98413.13;5035345;28;20643;-56
2022/11/04 02:55:29;;;;;;;14.45;10.05;;;;;;;10.21;100.00;98398.66;5035543;28;20169;-55
2022/11/04 02:58:00;;;;;;;18.27;9.48;;;;;;;10.28;100.00;98406.84;5035096;28;20197;-55
2022/11/04 03:00:27;;;;;;;20.25;9.95;;;;;;;10.37;100.00;98411.38;5035183;28;20178;-55
2022/11/04 03:03:00;;;;;;;12.65;9.10;;;;;;;10.29;100.00;98409.31;5035280;28;20189;-55
2022/11/04 03:05:30;;;;;;;16.63;10.45;;;;;;;10.23;100.00;98393.38;5035036;28;20706;-55
2022/11/04 03:07:59;;;;;;;21.83;9.40;;;;;;;10.43;100.00;98400.59;5036016;28;20269;-55
2022/11/04 03:10:32;;;;;;;14.77;10.30;;;;;;;10.40;100.00;98401.63;5034848;28;20190;-55
2022/11/04 03:13:13;;;;;;;16.13;10.20;;;;;;;10.45;100.00;98398.75;5034925;28;20627;-56
2022/11/04 03:15:44;;;;;;;14.02;8.80;;;;;;;10.39;100.00;98399.19;5034846;28;20166;-56
2022/11/04 03:18:28;;;;;;;16.45;9.10;;;;;;;10.13;100.00;98398.34;5035364;28;20317;-55
2022/11/04 03:20:57;;;;;;;15.50;9.18;;;;;;;10.25;100.00;98391.50;5017077;28;20206;-56
2022/11/04 03:23:23;;;;;;;13.55;8.13;;;;;;;10.10;100.00;98387.38;5034737;28;20200;-56
2022/11/04 03:25:56;;;;;;;13.73;8.85;;;;;;;9.95;100.00;98370.25;5034684;28;20679;-56
2022/11/04 03:29:03;;;;;;;13.50;8.75;;;;;;;10.17;100.00;98402.34;5017578;28;20163;-56
2022/11/04 03:31:53;;;;;;;11.57;8.77;;;;;;;10.21;100.00;98410.75;5023902;28;20197;-56
2022/11/04 03:34:19;;;;;;;15.60;8.32;;;;;;;10.21;100.00;98408.19;4984744;28;20648;-56
2022/11/04 03:36:44;;;;;;;13.60;8.23;;;;;;;10.11;100.00;98409.72;5034695;28;20194;-56
2022/11/04 03:39:10;;;;;;;17.52;9.45;;;;;;;10.23;100.00;98412.31;5034381;28;20183;-56
2022/11/04 03:41:52;;;;;;;15.00;9.82;;;;;;;10.07;100.00;98410.84;5034419;28;20181;-56
2022/11/04 03:44:18;;;;;;;16.67;9.82;;;;;;;10.10;100.00;98415.81;5034159;28;20238;-55
2022/11/04 03:46:44;;;;;;;19.17;9.18;;;;;;;10.22;100.00;98412.41;5034347;28;20174;-55
2022/11/04 03:49:11;;;;;;;14.05;9.30;;;;;;;10.23;100.00;98401.97;5034459;28;20179;-55
2022/11/04 03:51:36;;;;;;;15.88;8.63;;;;;;;10.23;100.00;98412.31;5034187;28;20189;-55
2022/11/04 03:54:02;;;;;;;13.57;8.65;;;;;;;10.23;100.00;98420.06;5032933;28;20183;-55
2022/11/04 03:56:58;;;;;;;14.50;8.43;;;;;;;9.98;100.00;98411.44;5034119;28;20205;-55
2022/11/04 03:59:47;;;;;;;13.70;8.07;;;;;;;10.09;100.00;98417.56;5034184;28;20603;-55
2022/11/04 04:02:19;;;;;;;13.50;8.38;;;;;;;10.02;100.00;98418.88;5023303;28;20194;-54
2022/11/04 04:04:58;;;;;;;13.40;8.27;;;;;;;10.00;100.00;98412.16;5016209;28;20614;-55
2022/11/04 04:07:32;;;;;;;15.68;8.82;;;;;;;10.08;100.00;98428.84;5034211;28;20217;-55
2022/11/04 04:10:40;;;;;;;14.30;8.23;;;;;;;10.18;100.00;98416.97;5034134;28;20249;-55
2022/11/04 04:13:08;;;;;;;11.25;8.55;;;;;;;10.20;100.00;98420.25;5033760;28;20178;-55
2022/11/04 04:15:45;;;;;;;15.23;8.88;;;;;;;10.14;100.00;98419.84;5033722;28;20267;-55
2022/11/04 04:18:15;;;;;;;17.45;9.07;;;;;;;10.07;100.00;98416.84;5033918;28;20206;-55
2022/11/04 04:20:46;;;;;;;21.20;9.48;;;;;;;9.85;100.00;98413.13;5033706;28;20191;-56
2022/11/04 04:28:52;;;;;;;12.75;8.70;;;;;;;9.71;100.00;98397.72;5033914;28;20173;-55
2022/11/04 04:31:48;;;;;;;17.73;9.68;;;;;;;9.66;100.00;98406.72;5033378;28;20638;-55
2022/11/04 04:34:04;;;;;;;13.65;9.27;;;;;;;9.63;100.00;98410.31;5033257;28;20264;-55
2022/11/04 04:36:34;;;;;;;18.02;9.55;;;;;;;9.62;100.00;98408.66;5033259;28;20209;-55
2022/11/04 04:47:39;;;;;;;14.85;9.73;;;;;;;9.89;100.00;98414.59;4972389;28;20268;-55
2022/11/04 04:50:06;;;;;;;16.17;9.60;;;;;;;9.83;100.00;98420.19;5022380;28;20201;-55
2022/11/04 04:52:36;;;;;;;15.50;9.10;;;;;;;9.63;100.00;98405.97;5033010;28;20179;-56
2022/11/04 04:55:02;;;;;;;16.40;9.90;;;;;;;9.53;100.00;98401.50;5033081;28;20246;-55
2022/11/04 04:57:27;;;;;;;19.33;10.75;;;;;;;9.54;100.00;98408.31;5032769;28;20293;-55
2022/11/04 04:59:53;;;;;;;20.20;9.82;;;;;;;9.42;100.00;98409.09;5032888;28;20178;-55
2022/11/04 05:02:18;;;;;;;16.80;11.10;;;;;;;9.50;100.00;98406.84;5032898;28;20174;-55
2022/11/04 05:04:43;;;;;;;24.90;11.50;;;;;;;9.58;100.00;98415.75;5032378;28;20209;-55
2022/11/04 05:07:09;;;;;;;17.38;11.35;;;;;;;9.70;100.00;98421.91;5032767;28;20261;-55
2022/11/04 05:09:35;;;;;;;18.95;12.05;;;;;;;9.69;100.00;98421.06;5032660;28;20240;-55
2022/11/04 05:12:00;;;;;;;23.45;11.95;;;;;;;9.59;100.00;98419.19;5015281;28;20183;-55
2022/11/04 05:14:26;;;;;;;24.13;11.73;;;;;;;9.70;100.00;98404.63;5032720;28;20639;-55
2022/11/04 05:16:51;;;;;;;18.25;11.35;;;;;;;9.63;100.00;98424.06;5032478;28;20198;-55
2022/11/04 05:19:17;;;;;;;20.88;10.82;;;;;;;9.55;100.00;98422.06;5032228;28;20186;-55
2022/11/04 05:21:42;;;;;;;20.92;11.00;;;;;;;9.50;100.00;98418.97;5032737;28;20208;-55
2022/11/04 05:24:08;;;;;;;23.30;11.15;;;;;;;9.47;100.00;98427.72;5032754;28;20182;-55
2022/11/04 05:26:34;;;;;;;16.08;10.48;;;;;;;9.53;100.00;98430.72;5032653;28;20181;-55
2022/11/04 05:28:59;;;;;;;20.75;11.63;;;;;;;9.62;100.00;98424.13;5032381;28;20174;-55
2022/11/04 05:31:25;;;;;;;17.65;10.27;;;;;;;9.78;100.00;98427.41;5032364;28;20269;-55
2022/11/04 05:33:50;;;;;;;20.92;10.48;;;;;;;9.86;100.00;98425.16;5032326;28;20182;-55
2022/11/04 05:36:16;;;;;;;18.02;11.45;;;;;;;9.99;100.00;98436.34;5014479;28;20178;-55
2022/11/04 05:38:42;;;;;;;21.80;11.60;;;;;;;10.07;100.00;98418.59;5032418;28;20171;-55
2022/11/04 05:41:10;;;;;;;15.27;7.80;;;;;;;10.32;100.00;98441.88;5014517;28;20178;-56
2022/11/04 05:43:36;;;;;;;10.82;6.30;;;;;;;10.47;96.89;98451.22;5032217;28;20865;-55
2022/11/04 05:46:02;;;;;;;15.40;7.53;;;;;;;10.56;95.89;98453.19;5032181;28;20174;-56
2022/11/04 05:48:27;;;;;;;7.72;6.70;;;;;;;10.53;95.63;98443.03;5032043;28;20561;-55
2022/11/04 05:50:53;;;;;;;11.38;7.07;;;;;;;10.75;92.70;98451.00;5032239;28;20253;-55
2022/11/04 05:53:19;;;;;;;13.07;6.25;;;;;;;10.74;91.55;98446.75;5032006;28;20185;-56
2022/11/04 05:55:44;;;;;;;9.88;6.03;;;;;;;10.93;91.52;98460.09;5032280;28;20174;-55
2022/11/04 05:58:10;;;;;;;11.88;6.97;;;;;;;10.97;91.04;98459.75;5032170;28;20264;-55
2022/11/04 06:00:36;;;;;;;16.20;6.78;;;;;;;11.03;90.44;98468.88;5032188;28;20178;-55
2022/11/04 06:03:01;;;;;;;12.93;6.57;;;;;;;11.13;89.04;98467.28;5032168;28;20616;-55
2022/11/04 06:05:27;;;;;;;14.30;7.00;;;;;;;11.11;87.41;98464.81;5031878;28;20183;-55
2022/11/04 06:07:54;;;;;;;12.70;6.28;;;;;;;11.19;87.18;98480.63;5032150;28;20174;-55
2022/11/04 06:10:19;;;;;;;14.73;7.50;;;;;;;11.15;87.68;98468.03;5031888;28;20659;-56
2022/11/04 06:12:45;;;;;;;14.77;7.00;;;;;;;11.36;87.67;98476.84;5031817;28;20174;-55
2022/11/04 06:15:10;;;;;;;13.32;7.00;;;;;;;11.47;86.92;98485.53;5031380;28;20170;-57
2022/11/04 06:17:36;;;;;;;10.40;5.95;;;;;;;11.58;85.78;98487.38;5035418;28;20706;-55
2022/11/04 06:20:02;;;;;;;10.65;5.90;;;;;;;11.69;84.54;98484.88;5036146;28;20176;-55
2022/11/04 06:22:28;;;;;;;16.08;6.43;;;;;;;11.75;83.68;98493.03;5036002;28;20252;-55
2022/11/04 06:24:53;;;;;;;12.75;7.15;;;;;;;11.80;84.25;98495.28;5035733;28;20332;-54
2022/11/04 06:27:18;;;;;;;12.75;7.57;;;;;;;11.88;84.04;98500.75;5036147;28;20163;-55
2022/11/04 06:29:44;;;;;;;18.85;10.68;;;;;;;12.02;85.12;98498.81;5035739;28;20196;-55
2022/11/04 06:32:15;;;;;;;29.63;11.93;;;;;;;12.00;89.54;98492.06;5034548;28;20181;-55
2022/11/04 06:34:41;;;;;;;25.73;13.57;;;;;;;12.05;90.75;98502.94;5034775;28;20656;-55
2022/11/04 06:37:06;;;;;;;22.83;13.43;;;;;;;12.19;90.30;98500.19;5035316;28;20213;-55
2022/11/04 06:39:32;;;;;;;19.05;12.18;;;;;;;12.33;90.02;98502.56;5035666;28;20183;-55
2022/11/04 06:41:57;;;;;;;23.85;13.68;;;;;;;12.47;88.37;98505.81;5035647;28;20183;-55
2022/11/04 06:44:23;;;;;;;25.17;12.15;;;;;;;12.56;88.01;98499.09;5017572;28;20699;-55
2022/11/04 06:46:49;;;;;;;23.88;13.50;;;;;;;12.60;87.98;98503.13;5035552;28;20655;-55
2022/11/04 06:49:20;;;;;;;30.02;13.13;;;;;;;12.67;88.42;98505.13;5035366;28;20258;-55
2022/11/04 06:51:46;;;;;;;27.55;13.98;;;;;;;12.78;88.21;98504.34;5035371;28;20693;-55
2022/11/04 06:54:13;;;;;;;28.20;15.02;;;;;;;12.94;88.00;98510.00;5035285;28;20197;-57
2022/11/04 06:56:39;;;;;;;21.10;12.63;;;;;;;13.02;86.46;98505.91;5035363;28;20201;-56
2022/11/04 06:59:05;;;;;;;22.52;12.20;;;;;;;12.90;83.58;98488.63;5035412;28;20178;-56
2022/11/04 07:01:33;;;;;;;17.75;10.65;;;;;;;12.94;82.40;98500.44;5034941;28;20178;-55
2022/11/04 07:04:00;;;;;;;15.82;9.30;;;;;;;12.99;81.00;98502.72;5035264;28;20205;-56
2022/11/04 07:06:30;;;;;;;16.85;7.75;;;;;;;12.95;78.59;98503.88;5017259;28;20224;-55
2022/11/04 07:09:01;;;;;;;14.55;8.13;;;;;;;12.87;77.41;98498.41;5035331;28;20174;-55
2022/11/04 07:11:29;;;;;;;15.95;7.20;;;;;;;12.78;76.77;98509.53;5035193;28;20186;-55
2022/11/04 07:13:54;;;;;;;14.68;8.25;;;;;;;12.74;77.61;98502.91;5035179;28;20559;-57
2022/11/04 07:16:20;;;;;;;20.33;11.90;;;;;;;12.79;80.82;98503.38;5034761;28;20228;-55
2022/11/04 07:18:48;;;;;;;24.05;13.15;;;;;;;12.96;84.64;98487.38;5035056;28;20615;-55
2022/11/04 07:21:13;;;;;;;30.42;16.02;;;;;;;13.02;89.51;98497.28;5034597;28;20271;-55
2022/11/04 07:23:39;;;;;;;32.85;15.30;;;;;;;13.04;88.88;98485.00;5034681;28;20233;-55
2022/11/04 07:26:06;;;;;;;24.23;13.85;;;;;;;13.30;88.31;98492.44;5034940;28;20178;-55
2022/11/04 07:28:33;;;;;;;30.65;16.02;;;;;;;13.43;87.50;98490.53;5034188;28;20558;-55
2022/11/04 07:31:00;;;;;;;30.90;16.38;;;;;;;13.45;86.85;98495.59;5034524;28;20181;-55
2022/11/04 07:33:26;;;;;;;36.05;16.40;;;;;;;13.50;86.65;98498.66;5034178;28;20182;-55
2022/11/04 07:35:53;;;;;;;31.38;16.83;;;;;;;13.61;86.47;98490.84;5032822;28;20174;-55
2022/11/04 07:38:20;;;;;;;27.30;15.43;;;;;;;13.69;86.67;98478.88;5034322;28;20195;-56
2022/11/04 07:40:45;;;;;;;26.25;15.60;;;;;;;13.46;89.09;98472.09;5034297;28;20182;-55
2022/11/04 07:43:10;;;;;;;39.33;17.08;;;;;;;13.44;89.71;98467.97;5034204;28;20170;-55
2022/11/04 07:45:36;;;;;;;33.38;18.75;;;;;;;13.36;90.96;98450.38;5034214;28;20190;-55
2022/11/04 07:48:01;;;;;;;30.55;17.98;;;;;;;13.48;90.98;98464.19;5034254;28;20544;-55
2022/11/04 07:50:27;;;;;;;37.63;17.88;;;;;;;13.65;90.37;98456.66;5034483;28;20257;-55
2022/11/04 07:52:52;;;;;;;30.15;17.92;;;;;;;13.87;89.44;98461.81;5034208;28;20253;-55
2022/11/04 07:55:18;;;;;;;32.63;18.23;;;;;;;13.98;88.50;98458.31;5034356;28;20178;-55
2022/11/04 07:57:47;;;;;;;35.35;18.58;;;;;;;14.11;88.12;98464.19;5034256;28;20685;-55
2022/11/04 08:00:14;;;;;;;34.47;19.35;;;;;;;14.13;87.83;98454.47;5033961;28;20185;-55
2022/11/04 08:02:45;;;;;;;38.95;20.77;;;;;;;14.24;87.68;98450.06;5016281;28;20202;-55
2022/11/04 08:05:13;;;;;;;38.17;21.10;;;;;;;14.15;88.03;98442.16;5033855;28;20231;-55
2022/11/04 08:07:39;;;;;;;38.90;20.88;;;;;;;14.11;89.31;98452.00;5034143;28;20224;-55
2022/11/04 08:10:05;;;;;;;40.22;20.73;;;;;;;14.26;89.23;98445.56;5033912;28;20178;-55
2022/11/04 08:12:31;;;;;;;37.92;19.92;;;;;;;14.42;88.42;98442.53;5033922;28;20241;-55
2022/11/04 08:14:58;;;;;;;34.05;19.98;;;;;;;14.43;88.13;98431.16;5033748;28;20579;-55
2022/11/04 08:17:23;;;;;;;50.10;21.27;;;;;;;14.34;88.79;98435.34;5033620;28;20555;-56
2022/11/04 08:19:49;;;;;;;39.28;20.77;;;;;;;14.25;89.44;98420.50;5033554;28;20181;-56
2022/11/04 08:22:14;;;;;;;36.47;20.35;;;;;;;14.10;91.14;98420.88;5033774;28;20170;-56
2022/11/04 08:24:40;;;;;;;43.58;19.67;;;;;;;14.30;90.92;98420.91;5033427;28;20654;-56
2022/11/04 08:27:08;;;;;;;38.25;23.90;;;;;;;14.31;91.66;98417.41;5033260;28;20689;-56
2022/11/04 08:29:35;;;;;;;45.33;21.13;;;;;;;14.34;91.63;98413.72;5033375;28;20771;-56
2022/11/04 08:32:01;;;;;;;43.35;20.73;;;;;;;14.32;91.16;98390.41;5033383;28;20674;-56
2022/11/04 08:34:26;;;;;;;39.50;21.17;;;;;;;14.52;90.38;98412.97;5033339;28;20170;-56
2022/11/04 08:36:56;;;;;;;41.15;20.73;;;;;;;14.59;90.79;98410.69;5033348;28;20199;-56
2022/11/04 08:39:22;;;;;;;38.65;21.30;;;;;;;14.72;89.99;98411.28;5032688;28;20181;-56
2022/11/04 08:41:49;;;;;;;51.90;21.92;;;;;;;14.74;89.75;98411.97;5033288;28;20225;-56
2022/11/04 08:44:15;;;;;;;44.55;21.20;;;;;;;14.83;89.25;98416.41;5033028;28;20646;-56
2022/11/04 08:46:42;;;;;;;44.60;22.75;;;;;;;14.82;88.25;98412.97;5033182;28;20166;-56
2022/11/04 08:49:08;;;;;;;44.75;22.13;;;;;;;14.66;90.26;98404.00;5033405;28;20185;-56
2022/11/04 08:51:36;;;;;;;40.47;21.30;;;;;;;14.40;91.16;98387.16;5033009;28;20647;-56
2022/11/04 08:54:03;;;;;;;41.58;21.20;;;;;;;14.64;91.20;98396.31;5032834;28;20265;-56
2022/11/04 08:56:32;;;;;;;38.10;20.52;;;;;;;14.81;90.48;98394.88;5033072;28;20622;-56
2022/11/04 08:58:58;;;;;;;42.33;21.60;;;;;;;14.73;90.76;98385.13;5032935;28;20592;-56
2022/11/04 09:01:25;;;;;;;43.35;22.67;;;;;;;14.91;88.93;98382.69;5032821;28;20209;-57
2022/11/04 09:03:51;;;;;;;42.85;23.00;;;;;;;15.11;87.83;98389.63;5033055;28;20174;-56
2022/11/04 09:06:21;;;;;;;41.28;23.25;;;;;;;15.28;86.54;98381.16;5033358;28;20221;-56
2022/11/04 09:08:47;;;;;;;36.08;21.55;;;;;;;15.30;86.53;98377.47;5032640;28;20266;-56
2022/11/04 09:11:14;;;;;;;41.45;24.48;;;;;;;15.31;85.60;98370.44;5032692;28;20178;-56
2022/11/04 09:13:40;;;;;;;39.45;21.67;;;;;;;15.49;84.59;98366.25;5032655;28;20170;-56
2022/11/04 09:16:07;;;;;;;36.50;20.75;;;;;;;15.51;84.06;98353.91;5032571;28;20179;-56
2022/11/04 09:18:32;;;;;;;34.95;20.30;;;;;;;15.76;82.66;98366.41;5032550;28;20320;-56
2022/11/04 09:21:02;;;;;;;43.75;20.48;;;;;;;15.85;82.13;98360.38;5032812;28;20257;-56
2022/11/04 09:23:27;;;;;;;38.00;19.38;;;;;;;15.94;81.55;98359.50;5032755;28;20555;-57
2022/11/04 09:25:55;;;;;;;34.05;19.88;;;;;;;15.98;81.18;98353.06;5032492;28;20177;-57
2022/11/04 09:28:21;;;;;;;37.15;21.20;;;;;;;15.87;80.97;98355.81;5032384;28;20178;-56
2022/11/04 09:30:46;;;;;;;38.20;20.60;;;;;;;15.82;80.86;98347.56;5032373;28;20170;-57
2022/11/04 09:33:12;;;;;;;36.30;19.95;;;;;;;15.69;82.05;98347.84;5032368;28;20194;-56
2022/11/04 09:35:37;;;;;;;34.45;19.35;;;;;;;15.60;82.53;98334.81;5032365;28;20170;-57
2022/11/04 09:38:03;;;;;;;37.30;19.75;;;;;;;15.64;82.35;98336.19;5032305;28;20194;-57
2022/11/04 09:40:29;;;;;;;38.45;19.83;;;;;;;15.59;82.74;98333.16;5032329;28;20182;-56
2022/11/04 09:43:13;;;;;;;38.72;20.45;;;;;;;15.68;82.71;98329.75;5032160;28;20167;-57
2022/11/04 09:45:41;;;;;;;46.05;20.88;;;;;;;15.58;82.90;98319.28;5032142;28;20308;-56
2022/11/04 09:48:15;;;;;;;44.92;21.63;;;;;;;15.71;82.80;98319.03;5014456;28;20692;-54
2022/11/04 09:50:52;;;;;;;39.63;21.63;;;;;;;15.83;82.78;98307.47;5032099;28;20168;-55
2022/11/04 09:53:36;;;;;;;37.78;19.40;;;;;;;15.73;83.09;98309.25;5032159;28;20157;-55
2022/11/04 09:56:31;;;;;;;44.55;21.30;;;;;;;15.88;82.54;98308.72;5032430;28;20162;-55
2022/11/04 09:58:57;;;;;;;34.67;19.10;;;;;;;16.03;82.24;98307.28;5025083;28;20280;-55
2022/11/04 10:01:43;;;;;;;34.58;17.70;;;;;;;16.22;80.30;98307.22;5032022;28;20205;-55
2022/11/04 10:04:53;;;;;;;36.85;19.20;;;;;;;16.26;80.13;98297.34;5031935;28;20308;-55
2022/11/04 10:07:36;;;;;;;40.05;19.13;;;;;;;16.38;78.98;98297.03;5001594;28;20197;-55
2022/11/04 10:10:17;;;;;;;34.28;19.13;;;;;;;16.48;78.06;98291.78;5032091;28;20170;-55
2022/11/04 10:13:01;;;;;;;32.88;19.50;;;;;;;16.18;79.01;98281.56;5032096;28;20158;-55
2022/11/04 10:15:55;;;;;;;34.60;18.77;;;;;;;16.33;78.42;98269.69;5031826;28;20297;-55
2022/11/04 10:18:58;;;;;;;34.55;17.77;;;;;;;16.41;78.01;98269.81;5032280;28;20658;-55
2022/11/04 10:21:31;;;;;;;34.85;18.77;;;;;;;16.51;77.83;98268.00;5013790;28;20593;-55
2022/11/04 10:24:14;;;;;;;33.25;19.55;;;;;;;16.62;76.58;98259.97;5032261;28;20163;-55
2022/11/04 10:26:53;;;;;;;33.55;18.55;;;;;;;16.62;76.00;98252.13;5031979;28;20162;-55
2022/11/04 10:29:42;;;;;;;33.83;18.23;;;;;;;16.61;76.32;98256.50;5031940;28;20193;-56
2022/11/04 10:32:32;;;;;;;32.63;19.63;;;;;;;16.59;76.34;98248.00;5032006;28;20190;-56
2022/11/04 10:35:04;;;;;;;32.03;17.88;;;;;;;16.54;76.90;98250.22;5031653;28;20566;-56
2022/11/04 10:37:30;;;;;;;29.10;17.73;;;;;;;16.55;77.61;98251.06;5031876;28;20198;-56
2022/11/04 10:40:31;;;;;;;31.77;17.95;;;;;;;16.32;78.30;98239.34;5031842;28;20228;-56
2022/11/04 10:42:59;;;;;;;36.90;18.92;;;;;;;16.33;78.46;98231.31;5031549;28;20664;-56
2022/11/04 10:45:39;;;;;;;32.33;17.73;;;;;;;16.33;78.44;98231.31;5031527;28;20194;-56
2022/11/04 10:48:19;;;;;;;28.45;17.60;;;;;;;16.48;77.47;98229.09;5031763;28;20579;-56
2022/11/04 10:50:52;;;;;;;29.65;17.92;;;;;;;16.53;77.65;98224.25;5031802;28;20169;-55
2022/11/04 10:53:21;;;;;;;31.73;17.70;;;;;;;16.26;78.08;98203.34;5031603;28;20162;-55
2022/11/04 10:55:53;;;;;;;30.95;17.17;;;;;;;16.67;76.50;98208.09;5031755;28;20568;-55
2022/11/04 10:58:26;;;;;;;29.75;16.33;;;;;;;16.96;75.33;98209.50;5031769;28;20218;-56
2022/11/04 11:00:53;;;;;;;28.02;17.23;;;;;;;17.24;73.64;98202.41;5031648;28;20174;-54
2022/11/04 11:03:23;;;;;;;35.38;18.65;;;;;;;17.43;71.72;98207.50;5034192;28;20192;-54
2022/11/04 11:05:51;;;;;;;32.97;18.77;;;;;;;17.49;71.55;98196.44;5035296;28;20184;-55
2022/11/04 11:08:29;;;;;;;36.72;18.33;;;;;;;17.17;72.57;98196.97;5035064;28;20185;-55
2022/11/04 11:10:55;;;;;;;37.67;18.00;;;;;;;17.01;73.87;98180.31;5035305;28;20178;-55
2022/11/04 11:13:36;;;;;;;31.13;18.13;;;;;;;17.17;73.18;98178.66;5035190;28;20182;-55
2022/11/04 11:16:05;;;;;;;29.50;17.40;;;;;;;17.04;72.82;98180.00;5034912;28;20160;-55
2022/11/04 11:18:30;;;;;;;30.08;17.42;;;;;;;17.01;73.19;98169.84;5035061;28;20194;-55
2022/11/04 11:21:06;;;;;;;32.30;18.38;;;;;;;16.99;73.34;98177.88;5017077;28;20188;-55
2022/11/04 11:23:45;;;;;;;29.98;18.42;;;;;;;17.17;73.10;98176.03;5034687;28;20177;-55
2022/11/04 11:26:16;;;;;;;33.15;17.35;;;;;;;16.95;72.35;98170.44;5034684;28;20165;-55
2022/11/04 11:28:55;;;;;;;27.73;16.83;;;;;;;16.76;73.79;98158.38;5034956;28;20545;-55
2022/11/04 11:31:25;;;;;;;30.38;17.23;;;;;;;16.64;74.56;98156.13;5034910;28;20208;-55
2022/11/04 11:33:51;;;;;;;32.38;17.10;;;;;;;16.63;74.78;98155.31;5034881;28;20168;-55
2022/11/04 11:36:23;;;;;;;30.27;17.55;;;;;;;16.74;74.49;98155.06;5034797;28;20206;-55
2022/11/04 11:39:20;;;;;;;29.40;17.42;;;;;;;16.63;74.99;98152.72;5034746;28;20614;-55
2022/11/04 11:41:50;;;;;;;28.38;18.00;;;;;;;16.55;74.67;98142.16;5034292;28;20166;-56
2022/11/04 11:44:35;;;;;;;29.45;16.85;;;;;;;16.71;75.16;98146.72;5034300;28;20238;-56
2022/11/04 11:47:10;;;;;;;26.92;15.73;;;;;;;16.92;74.61;98140.19;5034626;28;20171;-56
2022/11/04 11:49:36;;;;;;;29.63;16.60;;;;;;;17.19;73.23;98136.69;5034352;28;20162;-56
2022/11/04 11:52:33;;;;;;;31.67;16.60;;;;;;;17.40;71.91;98130.16;5016444;28;20184;-56
2022/11/04 11:55:18;;;;;;;29.02;16.05;;;;;;;17.34;70.97;98129.91;5017785;28;20217;-56
2022/11/04 11:57:52;;;;;;;28.83;16.50;;;;;;;17.40;71.42;98124.09;5020390;28;20219;-56
2022/11/04 12:00:21;;;;;;;24.92;15.45;;;;;;;17.50;70.27;98127.44;5034393;28;20169;-56
2022/11/04 12:02:57;;;;;;;28.10;15.82;;;;;;;17.62;69.51;98134.03;5034083;28;20243;-56
2022/11/04 12:05:44;;;;;;;25.52;15.63;;;;;;;17.49;68.89;98123.97;5034232;28;20673;-56
2022/11/04 12:08:40;;;;;;;27.40;15.80;;;;;;;17.51;69.92;98121.22;5034034;28;20158;-56
2022/11/04 12:11:08;;;;;;;27.48;15.45;;;;;;;17.49;69.68;98120.56;5034460;28;20162;-56